sensor_id;sensor_type;location;lat;lon;timestamp;P1;durP1;ratioP1;P2;durP2;ratioP2
24637;SDS011;12773;50.162;8.548;2024-02-15T00:02:47;31.70;;;15.23;;
24637;SDS011;12773;50.162;8.548;2024-02-15T00:05:52;29.20;;;13.18;;
24637;SDS011;12773;50.162;8.548;2024-02-15T00:08:40;29.45;;;13.65;;
24637;SDS011;12773;50.162;8.548;2024-02-15T00:11:28;29.45;;;14.55;;
24637;SDS011;12773;50.162;8.548;2024-02-15T00:14:16;32.75;;;14.28;;
24637;SDS011;12773;50.162;8.548;2024-02-15T00:17:04;28.75;;;14.07;;
24637;SDS011;12773;50.162;8.548;2024-02-15T00:19:52;29.15;;;14.73;;
24637;SDS011;12773;50.162;8.548;2024-02-15T00:22:40;29.90;;;15.18;;
24637;SDS011;12773;50.162;8.548;2024-02-15T00:25:28;35.83;;;15.85;;
24637;SDS011;12773;50.162;8.548;2024-02-15T00:28:16;36.77;;;18.50;;
24637;SDS011;12773;50.162;8.548;2024-02-15T00:31:04;33.60;;;15.85;;
24637;SDS011;12773;50.162;8.548;2024-02-15T00:33:51;40.05;;;18.10;;
24637;SDS011;12773;50.162;8.548;2024-02-15T00:36:43;38.35;;;18.12;;
24637;SDS011;12773;50.162;8.548;2024-02-15T00:39:31;39.63;;;18.07;;
24637;SDS011;12773;50.162;8.548;2024-02-15T00:42:18;39.65;;;18.32;;
24637;SDS011;12773;50.162;8.548;2024-02-15T00:45:06;40.65;;;18.05;;
24637;SDS011;12773;50.162;8.548;2024-02-15T00:47:54;42.03;;;18.80;;
24637;SDS011;12773;50.162;8.548;2024-02-15T00:50:42;39.38;;;18.37;;
24637;SDS011;12773;50.162;8.548;2024-02-15T00:53:30;42.15;;;18.50;;
24637;SDS011;12773;50.162;8.548;2024-02-15T00:56:17;40.90;;;18.12;;
24637;SDS011;12773;50.162;8.548;2024-02-15T00:59:05;35.73;;;17.57;;
24637;SDS011;12773;50.162;8.548;2024-02-15T01:01:53;38.17;;;17.52;;
24637;SDS011;12773;50.162;8.548;2024-02-15T01:04:41;41.53;;;19.37;;
24637;SDS011;12773;50.162;8.548;2024-02-15T01:07:30;38.15;;;18.35;;
24637;SDS011;12773;50.162;8.548;2024-02-15T01:10:19;38.60;;;18.27;;
24637;SDS011;12773;50.162;8.548;2024-02-15T01:13:07;37.33;;;17.95;;
24637;SDS011;12773;50.162;8.548;2024-02-15T01:15:55;35.03;;;17.02;;
24637;SDS011;12773;50.162;8.548;2024-02-15T01:18:42;35.92;;;16.70;;
24637;SDS011;12773;50.162;8.548;2024-02-15T01:21:30;45.10;;;18.42;;
24637;SDS011;12773;50.162;8.548;2024-02-15T01:24:19;38.85;;;18.30;;
24637;SDS011;12773;50.162;8.548;2024-02-15T01:27:06;46.05;;;18.10;;
24637;SDS011;12773;50.162;8.548;2024-02-15T01:29:56;37.13;;;17.67;;
24637;SDS011;12773;50.162;8.548;2024-02-15T01:32:44;33.42;;;17.05;;
24637;SDS011;12773;50.162;8.548;2024-02-15T01:35:31;42.35;;;18.95;;
24637;SDS011;12773;50.162;8.548;2024-02-15T01:38:19;43.80;;;19.23;;
24637;SDS011;12773;50.162;8.548;2024-02-15T01:41:07;39.55;;;18.40;;
24637;SDS011;12773;50.162;8.548;2024-02-15T01:43:54;38.70;;;19.00;;
24637;SDS011;12773;50.162;8.548;2024-02-15T01:46:42;40.43;;;18.70;;
24637;SDS011;12773;50.162;8.548;2024-02-15T01:49:29;42.53;;;18.90;;
24637;SDS011;12773;50.162;8.548;2024-02-15T01:52:18;48.63;;;20.25;;
24637;SDS011;12773;50.162;8.548;2024-02-15T01:55:06;42.53;;;19.35;;
24637;SDS011;12773;50.162;8.548;2024-02-15T01:57:54;41.42;;;20.40;;
24637;SDS011;12773;50.162;8.548;2024-02-15T02:00:41;38.25;;;19.50;;
24637;SDS011;12773;50.162;8.548;2024-02-15T02:03:29;39.33;;;19.65;;
24637;SDS011;12773;50.162;8.548;2024-02-15T02:06:17;37.67;;;19.30;;
24637;SDS011;12773;50.162;8.548;2024-02-15T02:09:05;42.13;;;19.05;;
24637;SDS011;12773;50.162;8.548;2024-02-15T02:11:55;43.70;;;19.37;;
24637;SDS011;12773;50.162;8.548;2024-02-15T02:14:43;40.28;;;18.15;;
24637;SDS011;12773;50.162;8.548;2024-02-15T02:17:31;38.15;;;18.42;;
24637;SDS011;12773;50.162;8.548;2024-02-15T02:20:19;39.35;;;17.50;;
24637;SDS011;12773;50.162;8.548;2024-02-15T02:23:09;36.88;;;17.98;;
24637;SDS011;12773;50.162;8.548;2024-02-15T02:25:58;35.43;;;16.45;;
24637;SDS011;12773;50.162;8.548;2024-02-15T02:28:46;40.12;;;18.55;;
24637;SDS011;12773;50.162;8.548;2024-02-15T02:31:34;41.98;;;18.25;;
24637;SDS011;12773;50.162;8.548;2024-02-15T02:34:22;36.63;;;17.85;;
24637;SDS011;12773;50.162;8.548;2024-02-15T02:37:11;45.08;;;17.90;;
24637;SDS011;12773;50.162;8.548;2024-02-15T02:39:59;37.30;;;19.12;;
24637;SDS011;12773;50.162;8.548;2024-02-15T02:42:48;38.48;;;18.70;;
24637;SDS011;12773;50.162;8.548;2024-02-15T02:45:39;42.03;;;17.90;;
24637;SDS011;12773;50.162;8.548;2024-02-15T02:48:27;34.78;;;17.90;;
24637;SDS011;12773;50.162;8.548;2024-02-15T02:51:15;39.15;;;17.42;;
24637;SDS011;12773;50.162;8.548;2024-02-15T02:54:04;33.25;;;18.07;;
24637;SDS011;12773;50.162;8.548;2024-02-15T02:56:53;34.92;;;17.25;;
24637;SDS011;12773;50.162;8.548;2024-02-15T02:59:40;34.65;;;15.95;;
24637;SDS011;12773;50.162;8.548;2024-02-15T03:02:28;36.03;;;15.43;;
24637;SDS011;12773;50.162;8.548;2024-02-15T03:05:15;39.08;;;16.50;;
24637;SDS011;12773;50.162;8.548;2024-02-15T03:08:05;32.17;;;16.42;;
24637;SDS011;12773;50.162;8.548;2024-02-15T03:10:54;38.50;;;16.82;;
24637;SDS011;12773;50.162;8.548;2024-02-15T03:13:42;39.42;;;17.55;;
24637;SDS011;12773;50.162;8.548;2024-02-15T03:16:31;37.70;;;17.70;;
24637;SDS011;12773;50.162;8.548;2024-02-15T03:19:19;37.95;;;18.25;;
24637;SDS011;12773;50.162;8.548;2024-02-15T03:22:08;36.17;;;18.32;;
24637;SDS011;12773;50.162;8.548;2024-02-15T03:24:58;35.25;;;17.10;;
24637;SDS011;12773;50.162;8.548;2024-02-15T03:27:45;37.40;;;17.52;;
24637;SDS011;12773;50.162;8.548;2024-02-15T03:30:32;35.90;;;16.80;;
24637;SDS011;12773;50.162;8.548;2024-02-15T03:33:20;38.92;;;16.42;;
24637;SDS011;12773;50.162;8.548;2024-02-15T03:36:10;31.00;;;16.35;;
24637;SDS011;12773;50.162;8.548;2024-02-15T03:38:59;34.73;;;16.23;;
24637;SDS011;12773;50.162;8.548;2024-02-15T03:41:47;43.90;;;16.90;;
24637;SDS011;12773;50.162;8.548;2024-02-15T03:44:35;36.08;;;15.28;;
24637;SDS011;12773;50.162;8.548;2024-02-15T03:47:24;33.78;;;15.98;;
24637;SDS011;12773;50.162;8.548;2024-02-15T03:50:14;30.12;;;14.35;;
24637;SDS011;12773;50.162;8.548;2024-02-15T03:53:01;32.90;;;15.03;;
24637;SDS011;12773;50.162;8.548;2024-02-15T03:55:51;28.40;;;15.25;;
24637;SDS011;12773;50.162;8.548;2024-02-15T03:58:39;32.93;;;15.38;;
24637;SDS011;12773;50.162;8.548;2024-02-15T04:01:27;28.67;;;12.82;;
24637;SDS011;12773;50.162;8.548;2024-02-15T04:04:16;29.57;;;13.83;;
24637;SDS011;12773;50.162;8.548;2024-02-15T04:07:03;35.38;;;13.30;;
24637;SDS011;12773;50.162;8.548;2024-02-15T04:09:52;28.52;;;13.03;;
24637;SDS011;12773;50.162;8.548;2024-02-15T04:12:42;24.67;;;12.58;;
24637;SDS011;12773;50.162;8.548;2024-02-15T04:15:29;25.88;;;13.03;;
24637;SDS011;12773;50.162;8.548;2024-02-15T04:18:19;22.30;;;12.50;;
24637;SDS011;12773;50.162;8.548;2024-02-15T04:21:07;22.62;;;13.08;;
24637;SDS011;12773;50.162;8.548;2024-02-15T04:23:55;27.42;;;12.55;;
24637;SDS011;12773;50.162;8.548;2024-02-15T04:26:43;26.82;;;13.50;;
24637;SDS011;12773;50.162;8.548;2024-02-15T04:29:32;28.20;;;13.15;;
24637;SDS011;12773;50.162;8.548;2024-02-15T04:32:20;29.42;;;13.28;;
24637;SDS011;12773;50.162;8.548;2024-02-15T04:35:08;32.08;;;13.58;;
24637;SDS011;12773;50.162;8.548;2024-02-15T04:37:57;22.82;;;12.93;;
24637;SDS011;12773;50.162;8.548;2024-02-15T04:40:44;27.15;;;13.25;;
24637;SDS011;12773;50.162;8.548;2024-02-15T04:43:32;28.38;;;13.13;;
24637;SDS011;12773;50.162;8.548;2024-02-15T04:46:19;30.37;;;12.98;;
24637;SDS011;12773;50.162;8.548;2024-02-15T04:49:07;22.22;;;12.45;;
24637;SDS011;12773;50.162;8.548;2024-02-15T04:51:56;25.55;;;13.13;;
24637;SDS011;12773;50.162;8.548;2024-02-15T04:54:45;22.67;;;11.93;;
24637;SDS011;12773;50.162;8.548;2024-02-15T04:57:33;23.57;;;11.20;;
24637;SDS011;12773;50.162;8.548;2024-02-15T05:00:23;23.75;;;12.05;;
24637;SDS011;12773;50.162;8.548;2024-02-15T05:03:11;30.48;;;12.15;;
24637;SDS011;12773;50.162;8.548;2024-02-15T05:05:59;21.75;;;12.13;;
24637;SDS011;12773;50.162;8.548;2024-02-15T05:08:49;24.43;;;12.03;;
24637;SDS011;12773;50.162;8.548;2024-02-15T05:11:36;21.73;;;10.82;;
24637;SDS011;12773;50.162;8.548;2024-02-15T05:14:31;26.15;;;11.95;;
24637;SDS011;12773;50.162;8.548;2024-02-15T05:17:19;24.10;;;12.23;;
24637;SDS011;12773;50.162;8.548;2024-02-15T05:20:08;27.13;;;13.05;;
24637;SDS011;12773;50.162;8.548;2024-02-15T05:23:00;27.90;;;12.10;;
24637;SDS011;12773;50.162;8.548;2024-02-15T05:25:47;25.80;;;12.82;;
24637;SDS011;12773;50.162;8.548;2024-02-15T05:28:35;26.90;;;12.55;;
24637;SDS011;12773;50.162;8.548;2024-02-15T05:31:22;27.93;;;12.53;;
24637;SDS011;12773;50.162;8.548;2024-02-15T05:34:10;24.52;;;11.80;;
24637;SDS011;12773;50.162;8.548;2024-02-15T05:36:59;21.85;;;12.07;;
24637;SDS011;12773;50.162;8.548;2024-02-15T05:39:48;28.65;;;12.80;;
24637;SDS011;12773;50.162;8.548;2024-02-15T05:42:37;24.32;;;12.23;;
24637;SDS011;12773;50.162;8.548;2024-02-15T05:48:21;26.07;;;11.85;;
24637;SDS011;12773;50.162;8.548;2024-02-15T05:51:09;25.50;;;11.65;;
24637;SDS011;12773;50.162;8.548;2024-02-15T05:53:56;23.05;;;11.43;;
24637;SDS011;12773;50.162;8.548;2024-02-15T05:56:45;19.50;;;10.68;;
24637;SDS011;12773;50.162;8.548;2024-02-15T05:59:34;21.17;;;10.35;;
24637;SDS011;12773;50.162;8.548;2024-02-15T06:02:21;21.07;;;11.20;;
24637;SDS011;12773;50.162;8.548;2024-02-15T06:05:08;22.42;;;10.78;;
24637;SDS011;12773;50.162;8.548;2024-02-15T06:07:56;23.73;;;10.93;;
24637;SDS011;12773;50.162;8.548;2024-02-15T06:10:44;20.05;;;10.28;;
24637;SDS011;12773;50.162;8.548;2024-02-15T06:13:32;35.75;;;17.67;;
24637;SDS011;12773;50.162;8.548;2024-02-15T06:16:20;32.28;;;13.22;;
24637;SDS011;12773;50.162;8.548;2024-02-15T06:19:08;22.87;;;11.18;;
24637;SDS011;12773;50.162;8.548;2024-02-15T06:21:55;22.60;;;10.63;;
24637;SDS011;12773;50.162;8.548;2024-02-15T06:24:43;28.20;;;10.50;;
24637;SDS011;12773;50.162;8.548;2024-02-15T06:27:31;20.40;;;9.75;;
24637;SDS011;12773;50.162;8.548;2024-02-15T06:30:18;17.17;;;9.80;;
24637;SDS011;12773;50.162;8.548;2024-02-15T06:33:24;20.37;;;9.85;;
24637;SDS011;12773;50.162;8.548;2024-02-15T06:36:29;15.38;;;8.85;;
24637;SDS011;12773;50.162;8.548;2024-02-15T06:39:35;14.87;;;9.50;;
24637;SDS011;12773;50.162;8.548;2024-02-15T06:42:30;24.40;;;9.28;;
24637;SDS011;12773;50.162;8.548;2024-02-15T06:45:19;20.23;;;9.35;;
24637;SDS011;12773;50.162;8.548;2024-02-15T06:48:09;18.57;;;9.48;;
24637;SDS011;12773;50.162;8.548;2024-02-15T06:50:56;14.30;;;8.45;;
24637;SDS011;12773;50.162;8.548;2024-02-15T06:53:43;17.90;;;9.53;;
24637;SDS011;12773;50.162;8.548;2024-02-15T06:56:35;19.17;;;9.20;;
24637;SDS011;12773;50.162;8.548;2024-02-15T06:59:25;18.05;;;9.25;;
24637;SDS011;12773;50.162;8.548;2024-02-15T07:02:12;17.30;;;8.63;;
24637;SDS011;12773;50.162;8.548;2024-02-15T07:05:00;14.73;;;7.60;;
24637;SDS011;12773;50.162;8.548;2024-02-15T07:07:48;17.65;;;8.08;;
24637;SDS011;12773;50.162;8.548;2024-02-15T07:10:39;19.07;;;8.53;;
24637;SDS011;12773;50.162;8.548;2024-02-15T07:13:27;19.27;;;8.33;;
24637;SDS011;12773;50.162;8.548;2024-02-15T07:16:14;15.10;;;7.72;;
24637;SDS011;12773;50.162;8.548;2024-02-15T07:19:03;18.75;;;8.45;;
24637;SDS011;12773;50.162;8.548;2024-02-15T07:21:51;19.62;;;8.23;;
24637;SDS011;12773;50.162;8.548;2024-02-15T07:24:39;20.17;;;8.50;;
24637;SDS011;12773;50.162;8.548;2024-02-15T07:27:32;16.95;;;8.20;;
24637;SDS011;12773;50.162;8.548;2024-02-15T07:30:15;21.70;;;9.98;;
24637;SDS011;12773;50.162;8.548;2024-02-15T07:33:03;29.10;;;12.20;;
24637;SDS011;12773;50.162;8.548;2024-02-15T07:35:52;20.10;;;9.50;;
24637;SDS011;12773;50.162;8.548;2024-02-15T07:38:39;21.75;;;9.83;;
24637;SDS011;12773;50.162;8.548;2024-02-15T07:41:27;21.85;;;10.98;;
24637;SDS011;12773;50.162;8.548;2024-02-15T07:44:14;24.18;;;9.55;;
24637;SDS011;12773;50.162;8.548;2024-02-15T07:47:04;23.27;;;9.50;;
24637;SDS011;12773;50.162;8.548;2024-02-15T07:49:53;21.40;;;8.95;;
24637;SDS011;12773;50.162;8.548;2024-02-15T07:52:40;23.73;;;9.60;;
24637;SDS011;12773;50.162;8.548;2024-02-15T07:55:28;14.85;;;7.62;;
24637;SDS011;12773;50.162;8.548;2024-02-15T07:58:15;23.18;;;8.58;;
24637;SDS011;12773;50.162;8.548;2024-02-15T08:01:04;19.73;;;8.23;;
24637;SDS011;12773;50.162;8.548;2024-02-15T08:03:52;18.35;;;8.00;;
24637;SDS011;12773;50.162;8.548;2024-02-15T08:06:41;18.17;;;8.13;;
24637;SDS011;12773;50.162;8.548;2024-02-15T08:09:29;20.62;;;8.20;;
24637;SDS011;12773;50.162;8.548;2024-02-15T08:12:17;17.92;;;7.42;;
24637;SDS011;12773;50.162;8.548;2024-02-15T08:15:04;18.52;;;7.92;;
24637;SDS011;12773;50.162;8.548;2024-02-15T08:17:54;34.53;;;15.55;;
24637;SDS011;12773;50.162;8.548;2024-02-15T08:20:42;22.20;;;8.03;;
24637;SDS011;12773;50.162;8.548;2024-02-15T08:23:30;16.73;;;7.90;;
24637;SDS011;12773;50.162;8.548;2024-02-15T08:26:18;16.85;;;7.37;;
24637;SDS011;12773;50.162;8.548;2024-02-15T08:29:06;17.90;;;7.10;;
24637;SDS011;12773;50.162;8.548;2024-02-15T08:31:53;15.75;;;7.08;;
24637;SDS011;12773;50.162;8.548;2024-02-15T08:34:41;16.82;;;7.53;;
24637;SDS011;12773;50.162;8.548;2024-02-15T08:37:28;16.12;;;7.55;;
24637;SDS011;12773;50.162;8.548;2024-02-15T08:40:18;17.90;;;7.90;;
24637;SDS011;12773;50.162;8.548;2024-02-15T08:43:07;13.88;;;7.10;;
24637;SDS011;12773;50.162;8.548;2024-02-15T08:45:54;17.62;;;7.30;;
24637;SDS011;12773;50.162;8.548;2024-02-15T08:48:43;16.10;;;7.05;;
24637;SDS011;12773;50.162;8.548;2024-02-15T08:51:31;17.20;;;6.95;;
24637;SDS011;12773;50.162;8.548;2024-02-15T08:54:18;20.08;;;7.45;;
24637;SDS011;12773;50.162;8.548;2024-02-15T08:57:07;14.87;;;6.83;;
24637;SDS011;12773;50.162;8.548;2024-02-15T08:59:54;16.05;;;7.08;;
24637;SDS011;12773;50.162;8.548;2024-02-15T09:02:45;18.40;;;7.67;;
24637;SDS011;12773;50.162;8.548;2024-02-15T09:05:35;12.30;;;6.22;;
24637;SDS011;12773;50.162;8.548;2024-02-15T09:08:22;10.95;;;6.25;;
24637;SDS011;12773;50.162;8.548;2024-02-15T09:11:10;9.75;;;6.50;;
24637;SDS011;12773;50.162;8.548;2024-02-15T09:13:58;15.35;;;6.83;;
24637;SDS011;12773;50.162;8.548;2024-02-15T09:16:46;13.45;;;7.12;;
24637;SDS011;12773;50.162;8.548;2024-02-15T09:19:34;14.35;;;7.95;;
24637;SDS011;12773;50.162;8.548;2024-02-15T09:22:21;22.00;;;8.08;;
24637;SDS011;12773;50.162;8.548;2024-02-15T09:25:09;16.57;;;7.37;;
24637;SDS011;12773;50.162;8.548;2024-02-15T09:27:58;18.02;;;6.65;;
24637;SDS011;12773;50.162;8.548;2024-02-15T09:30:45;13.78;;;6.20;;
24637;SDS011;12773;50.162;8.548;2024-02-15T09:33:33;15.20;;;6.35;;
24637;SDS011;12773;50.162;8.548;2024-02-15T09:36:21;13.83;;;5.85;;
24637;SDS011;12773;50.162;8.548;2024-02-15T09:39:08;15.53;;;6.25;;
24637;SDS011;12773;50.162;8.548;2024-02-15T09:41:57;17.62;;;6.75;;
24637;SDS011;12773;50.162;8.548;2024-02-15T09:44:45;15.15;;;6.45;;
24637;SDS011;12773;50.162;8.548;2024-02-15T09:47:38;14.63;;;6.28;;
24637;SDS011;12773;50.162;8.548;2024-02-15T09:50:22;16.17;;;6.15;;
24637;SDS011;12773;50.162;8.548;2024-02-15T09:53:11;15.13;;;6.80;;
24637;SDS011;12773;50.162;8.548;2024-02-15T09:56:00;16.12;;;6.50;;
24637;SDS011;12773;50.162;8.548;2024-02-15T09:58:50;17.10;;;6.15;;
24637;SDS011;12773;50.162;8.548;2024-02-15T10:01:38;15.00;;;6.50;;
24637;SDS011;12773;50.162;8.548;2024-02-15T10:04:27;14.18;;;6.15;;
24637;SDS011;12773;50.162;8.548;2024-02-15T10:07:15;13.35;;;6.15;;
24637;SDS011;12773;50.162;8.548;2024-02-15T10:10:16;13.83;;;6.90;;
24637;SDS011;12773;50.162;8.548;2024-02-15T10:13:05;11.40;;;6.62;;
24637;SDS011;12773;50.162;8.548;2024-02-15T10:15:54;15.38;;;7.03;;
24637;SDS011;12773;50.162;8.548;2024-02-15T10:18:42;13.45;;;6.65;;
24637;SDS011;12773;50.162;8.548;2024-02-15T10:21:29;19.40;;;7.60;;
24637;SDS011;12773;50.162;8.548;2024-02-15T10:24:19;18.37;;;7.92;;
24637;SDS011;12773;50.162;8.548;2024-02-15T10:27:06;14.83;;;6.58;;
24637;SDS011;12773;50.162;8.548;2024-02-15T10:29:58;17.45;;;6.80;;
24637;SDS011;12773;50.162;8.548;2024-02-15T10:32:48;14.30;;;6.37;;
24637;SDS011;12773;50.162;8.548;2024-02-15T10:35:35;16.62;;;7.50;;
24637;SDS011;12773;50.162;8.548;2024-02-15T10:38:23;18.85;;;6.60;;
24637;SDS011;12773;50.162;8.548;2024-02-15T10:41:12;13.35;;;6.42;;
24637;SDS011;12773;50.162;8.548;2024-02-15T10:44:01;10.55;;;6.40;;
24637;SDS011;12773;50.162;8.548;2024-02-15T10:46:49;11.35;;;6.05;;
24637;SDS011;12773;50.162;8.548;2024-02-15T10:49:38;12.65;;;6.80;;
24637;SDS011;12773;50.162;8.548;2024-02-15T10:52:30;16.80;;;7.00;;
24637;SDS011;12773;50.162;8.548;2024-02-15T10:55:22;13.75;;;6.70;;
24637;SDS011;12773;50.162;8.548;2024-02-15T10:58:25;17.10;;;6.80;;
24637;SDS011;12773;50.162;8.548;2024-02-15T11:01:16;13.13;;;6.50;;
24637;SDS011;12773;50.162;8.548;2024-02-15T11:04:06;10.80;;;5.45;;
24637;SDS011;12773;50.162;8.548;2024-02-15T11:06:54;13.83;;;6.37;;
24637;SDS011;12773;50.162;8.548;2024-02-15T11:09:42;10.55;;;5.90;;
24637;SDS011;12773;50.162;8.548;2024-02-15T11:12:30;12.70;;;6.15;;
24637;SDS011;12773;50.162;8.548;2024-02-15T11:15:52;16.67;;;6.00;;
24637;SDS011;12773;50.162;8.548;2024-02-15T11:18:59;11.93;;;6.47;;
24637;SDS011;12773;50.162;8.548;2024-02-15T11:24:45;8.80;;;5.03;;
24637;SDS011;12773;50.162;8.548;2024-02-15T11:27:33;10.72;;;5.47;;
24637;SDS011;12773;50.162;8.548;2024-02-15T11:30:33;15.05;;;5.22;;
24637;SDS011;12773;50.162;8.548;2024-02-15T11:33:30;12.45;;;5.45;;
24637;SDS011;12773;50.162;8.548;2024-02-15T11:36:30;12.68;;;5.10;;
24637;SDS011;12773;50.162;8.548;2024-02-15T11:42:28;10.35;;;4.28;;
24637;SDS011;12773;50.162;8.548;2024-02-15T11:45:16;12.23;;;4.95;;
24637;SDS011;12773;50.162;8.548;2024-02-15T11:48:08;8.50;;;4.50;;
24637;SDS011;12773;50.162;8.548;2024-02-15T11:50:58;10.10;;;4.28;;
24637;SDS011;12773;50.162;8.548;2024-02-15T11:53:57;9.38;;;5.00;;
24637;SDS011;12773;50.162;8.548;2024-02-15T11:56:54;12.58;;;4.33;;
24637;SDS011;12773;50.162;8.548;2024-02-15T11:59:52;11.93;;;4.90;;
24637;SDS011;12773;50.162;8.548;2024-02-15T12:02:41;17.07;;;4.55;;
24637;SDS011;12773;50.162;8.548;2024-02-15T12:05:48;13.13;;;4.37;;
24637;SDS011;12773;50.162;8.548;2024-02-15T12:12:00;4.70;;;3.12;;
24637;SDS011;12773;50.162;8.548;2024-02-15T12:15:05;9.68;;;3.67;;
24637;SDS011;12773;50.162;8.548;2024-02-15T12:18:19;8.65;;;3.67;;
24637;SDS011;12773;50.162;8.548;2024-02-15T12:21:23;10.50;;;3.62;;
24637;SDS011;12773;50.162;8.548;2024-02-15T12:24:12;9.78;;;3.58;;
24637;SDS011;12773;50.162;8.548;2024-02-15T12:27:02;7.58;;;3.60;;
24637;SDS011;12773;50.162;8.548;2024-02-15T12:29:55;11.00;;;3.52;;
24637;SDS011;12773;50.162;8.548;2024-02-15T12:32:43;8.65;;;4.10;;
24637;SDS011;12773;50.162;8.548;2024-02-15T12:35:30;9.78;;;4.83;;
24637;SDS011;12773;50.162;8.548;2024-02-15T12:38:18;11.05;;;4.42;;
24637;SDS011;12773;50.162;8.548;2024-02-15T12:41:19;7.45;;;3.12;;
24637;SDS011;12773;50.162;8.548;2024-02-15T12:44:07;9.55;;;3.30;;
24637;SDS011;12773;50.162;8.548;2024-02-15T12:46:56;7.45;;;3.52;;
24637;SDS011;12773;50.162;8.548;2024-02-15T12:49:45;9.10;;;3.12;;
24637;SDS011;12773;50.162;8.548;2024-02-15T12:52:34;6.45;;;2.98;;
24637;SDS011;12773;50.162;8.548;2024-02-15T12:55:23;6.83;;;3.08;;
24637;SDS011;12773;50.162;8.548;2024-02-15T12:58:13;9.88;;;2.90;;
24637;SDS011;12773;50.162;8.548;2024-02-15T13:01:02;7.40;;;3.27;;
24637;SDS011;12773;50.162;8.548;2024-02-15T13:03:50;7.05;;;2.72;;
24637;SDS011;12773;50.162;8.548;2024-02-15T13:06:37;5.72;;;2.85;;
24637;SDS011;12773;50.162;8.548;2024-02-15T13:09:25;6.75;;;2.50;;
24637;SDS011;12773;50.162;8.548;2024-02-15T13:12:12;8.88;;;3.12;;
24637;SDS011;12773;50.162;8.548;2024-02-15T13:15:00;8.65;;;2.50;;
24637;SDS011;12773;50.162;8.548;2024-02-15T13:17:49;8.00;;;2.25;;
24637;SDS011;12773;50.162;8.548;2024-02-15T13:20:40;6.20;;;2.17;;
24637;SDS011;12773;50.162;8.548;2024-02-15T13:23:27;16.50;;;6.25;;
24637;SDS011;12773;50.162;8.548;2024-02-15T13:26:16;19.30;;;6.65;;
24637;SDS011;12773;50.162;8.548;2024-02-15T13:29:06;8.40;;;2.65;;
24637;SDS011;12773;50.162;8.548;2024-02-15T13:31:53;6.17;;;1.98;;
24637;SDS011;12773;50.162;8.548;2024-02-15T13:34:41;6.80;;;1.98;;
24637;SDS011;12773;50.162;8.548;2024-02-15T13:37:28;5.50;;;1.55;;
24637;SDS011;12773;50.162;8.548;2024-02-15T13:40:15;5.40;;;2.00;;
24637;SDS011;12773;50.162;8.548;2024-02-15T13:43:03;15.48;;;5.03;;
24637;SDS011;12773;50.162;8.548;2024-02-15T13:45:51;7.45;;;1.95;;
24637;SDS011;12773;50.162;8.548;2024-02-15T13:48:39;5.08;;;1.67;;
24637;SDS011;12773;50.162;8.548;2024-02-15T13:51:27;6.80;;;2.00;;
24637;SDS011;12773;50.162;8.548;2024-02-15T13:54:15;6.92;;;1.85;;
24637;SDS011;12773;50.162;8.548;2024-02-15T13:57:03;8.83;;;1.87;;
24637;SDS011;12773;50.162;8.548;2024-02-15T13:59:52;5.92;;;1.70;;
24637;SDS011;12773;50.162;8.548;2024-02-15T14:02:40;7.70;;;2.22;;
24637;SDS011;12773;50.162;8.548;2024-02-15T14:05:29;4.75;;;1.85;;
24637;SDS011;12773;50.162;8.548;2024-02-15T14:08:17;4.65;;;1.87;;
24637;SDS011;12773;50.162;8.548;2024-02-15T14:11:06;6.92;;;1.82;;
24637;SDS011;12773;50.162;8.548;2024-02-15T14:13:54;8.00;;;2.05;;
24637;SDS011;12773;50.162;8.548;2024-02-15T14:16:44;5.37;;;1.92;;
24637;SDS011;12773;50.162;8.548;2024-02-15T14:19:31;7.00;;;1.85;;
24637;SDS011;12773;50.162;8.548;2024-02-15T14:22:18;3.70;;;1.87;;
24637;SDS011;12773;50.162;8.548;2024-02-15T14:25:07;7.45;;;2.08;;
24637;SDS011;12773;50.162;8.548;2024-02-15T14:27:55;5.30;;;1.65;;
24637;SDS011;12773;50.162;8.548;2024-02-15T14:30:43;6.95;;;2.02;;
24637;SDS011;12773;50.162;8.548;2024-02-15T14:33:54;4.50;;;1.87;;
24637;SDS011;12773;50.162;8.548;2024-02-15T14:36:42;6.72;;;1.87;;
24637;SDS011;12773;50.162;8.548;2024-02-15T14:39:29;4.15;;;1.85;;
24637;SDS011;12773;50.162;8.548;2024-02-15T14:42:17;8.28;;;1.85;;
24637;SDS011;12773;50.162;8.548;2024-02-15T14:45:12;4.30;;;1.72;;
24637;SDS011;12773;50.162;8.548;2024-02-15T14:47:58;5.17;;;1.62;;
24637;SDS011;12773;50.162;8.548;2024-02-15T14:50:45;7.22;;;2.00;;
24637;SDS011;12773;50.162;8.548;2024-02-15T14:53:35;4.55;;;1.57;;
24637;SDS011;12773;50.162;8.548;2024-02-15T14:56:22;5.22;;;1.72;;
24637;SDS011;12773;50.162;8.548;2024-02-15T14:59:10;6.05;;;1.85;;
24637;SDS011;12773;50.162;8.548;2024-02-15T15:01:58;3.10;;;1.65;;
24637;SDS011;12773;50.162;8.548;2024-02-15T15:04:47;9.75;;;1.90;;
24637;SDS011;12773;50.162;8.548;2024-02-15T15:07:45;9.78;;;2.00;;
24637;SDS011;12773;50.162;8.548;2024-02-15T15:10:51;5.05;;;1.40;;
24637;SDS011;12773;50.162;8.548;2024-02-15T15:14:02;4.60;;;1.47;;
24637;SDS011;12773;50.162;8.548;2024-02-15T15:16:45;4.83;;;1.75;;
24637;SDS011;12773;50.162;8.548;2024-02-15T15:19:34;3.85;;;1.87;;
24637;SDS011;12773;50.162;8.548;2024-02-15T15:22:23;9.53;;;2.02;;
24637;SDS011;12773;50.162;8.548;2024-02-15T15:25:11;7.95;;;1.67;;
24637;SDS011;12773;50.162;8.548;2024-02-15T15:27:59;9.90;;;1.90;;
24637;SDS011;12773;50.162;8.548;2024-02-15T15:30:48;6.00;;;1.85;;
24637;SDS011;12773;50.162;8.548;2024-02-15T15:33:36;5.28;;;1.80;;
24637;SDS011;12773;50.162;8.548;2024-02-15T15:36:24;4.95;;;1.47;;
24637;SDS011;12773;50.162;8.548;2024-02-15T15:39:11;6.67;;;1.60;;
24637;SDS011;12773;50.162;8.548;2024-02-15T15:41:58;5.72;;;1.95;;
24637;SDS011;12773;50.162;8.548;2024-02-15T15:44:46;7.30;;;1.55;;
24637;SDS011;12773;50.162;8.548;2024-02-15T15:47:35;4.03;;;1.57;;
24637;SDS011;12773;50.162;8.548;2024-02-15T15:50:23;5.80;;;1.80;;
24637;SDS011;12773;50.162;8.548;2024-02-15T15:53:11;5.47;;;1.67;;
24637;SDS011;12773;50.162;8.548;2024-02-15T15:55:59;7.33;;;1.40;;
24637;SDS011;12773;50.162;8.548;2024-02-15T15:58:46;4.60;;;1.80;;
24637;SDS011;12773;50.162;8.548;2024-02-15T16:01:36;6.00;;;1.82;;
24637;SDS011;12773;50.162;8.548;2024-02-15T16:04:23;7.08;;;1.47;;
24637;SDS011;12773;50.162;8.548;2024-02-15T16:07:11;10.75;;;1.85;;
24637;SDS011;12773;50.162;8.548;2024-02-15T16:09:59;7.50;;;1.40;;
24637;SDS011;12773;50.162;8.548;2024-02-15T16:12:46;6.58;;;1.98;;
24637;SDS011;12773;50.162;8.548;2024-02-15T16:15:34;5.72;;;1.75;;
24637;SDS011;12773;50.162;8.548;2024-02-15T16:18:23;6.72;;;1.50;;
24637;SDS011;12773;50.162;8.548;2024-02-15T16:21:10;6.17;;;1.50;;
24637;SDS011;12773;50.162;8.548;2024-02-15T16:23:58;9.73;;;1.65;;
24637;SDS011;12773;50.162;8.548;2024-02-15T16:26:45;14.80;;;1.92;;
24637;SDS011;12773;50.162;8.548;2024-02-15T16:29:36;8.55;;;1.80;;
24637;SDS011;12773;50.162;8.548;2024-02-15T16:32:23;14.03;;;2.25;;
24637;SDS011;12773;50.162;8.548;2024-02-15T16:35:11;10.40;;;1.82;;
24637;SDS011;12773;50.162;8.548;2024-02-15T16:38:02;10.85;;;2.42;;
24637;SDS011;12773;50.162;8.548;2024-02-15T16:40:51;8.60;;;2.10;;
24637;SDS011;12773;50.162;8.548;2024-02-15T16:43:38;13.25;;;2.35;;
24637;SDS011;12773;50.162;8.548;2024-02-15T16:46:26;6.45;;;1.95;;
24637;SDS011;12773;50.162;8.548;2024-02-15T16:49:15;6.85;;;2.15;;
24637;SDS011;12773;50.162;8.548;2024-02-15T16:52:02;7.10;;;2.90;;
24637;SDS011;12773;50.162;8.548;2024-02-15T16:54:49;9.95;;;3.20;;
24637;SDS011;12773;50.162;8.548;2024-02-15T16:57:37;11.12;;;3.15;;